Time;durP1;ratioP1;P1;durP2;ratioP2;P2;SDS_P1;SDS_P2;PMS_P1;PMS_P2;Temp;Humidity;BMP_temperature;BMP_pressure;BME280_temperature;BME280_humidity;BME280_pressure;Samples;Min_cycle;Max_cycle;Signal;HPM_P1;HPM_P2
2021/12/26 00:02:02;;;;;;;79.93;10.70;;;8.40;61.90;;;;;;21409;6640;67029;-88
2021/12/26 00:04:27;;;;;;;47.70;9.63;;;8.20;62.60;;;;;;21460;6628;66588;-88
2021/12/26 00:06:53;;;;;;;41.80;10.15;;;7.90;63.30;;;;;;21412;6640;66771;-88
2021/12/26 00:09:19;;;;;;;73.53;10.65;;;7.60;64.80;;;;;;21419;6640;66780;-86
2021/12/26 00:11:45;;;;;;;40.07;9.73;;;7.60;65.40;;;;;;21402;6640;66573;-85
2021/12/26 00:14:10;;;;;;;52.60;11.98;;;7.50;65.30;;;;;;21207;6640;301390;-84
2021/12/26 00:16:36;;;;;;;88.45;13.07;;;7.70;65.00;;;;;;21250;6640;299866;-87
2021/12/26 00:19:01;;;;;;;56.37;11.83;;;8.10;63.50;;;;;;21424;6640;67356;-89
2021/12/26 00:21:27;;;;;;;54.40;9.50;;;8.00;62.80;;;;;;21404;6640;66176;-86
2021/12/26 00:23:53;;;;;;;43.70;9.35;;;7.80;63.40;;;;;;21401;6640;67012;-84
2021/12/26 00:26:18;;;;;;;61.00;12.83;;;7.50;64.10;;;;;;21174;6640;271533;-88
2021/12/26 00:28:44;;;;;;;32.33;10.80;;;7.70;64.20;;;;;;21398;6640;66191;-88
2021/12/26 00:31:09;;;;;;;32.67;10.27;;;7.70;64.00;;;;;;21427;6628;75017;-85
2021/12/26 00:33:35;;;;;;;45.83;10.80;;;7.50;64.50;;;;;;21391;6640;66244;-85
2021/12/26 00:36:00;;;;;;;79.23;11.73;;;7.30;65.10;;;;;;21382;6641;66630;-89
2021/12/26 00:38:26;;;;;;;41.93;13.27;;;7.20;65.60;;;;;;21170;6641;330368;-85
2021/12/26 00:40:51;;;;;;;56.27;12.00;;;7.40;65.80;;;;;;21396;6641;88812;-86
2021/12/26 00:43:17;;;;;;;71.70;11.23;;;7.50;65.50;;;;;;21388;6641;67048;-89
2021/12/26 00:45:43;;;;;;;62.78;13.38;;;7.30;65.70;;;;;;21058;6641;330519;-86
2021/12/26 00:48:08;;;;;;;70.28;11.82;;;7.50;65.80;;;;;;21415;6628;88573;-85
2021/12/26 00:50:34;;;;;;;86.43;14.87;;;7.70;65.10;;;;;;21144;6641;271800;-86
2021/12/26 00:53:00;;;;;;;46.60;12.00;;;7.70;65.10;;;;;;21376;6641;66677;-86
2021/12/26 00:55:26;;;;;;;71.03;11.80;;;7.50;65.80;;;;;;21375;6641;67149;-86
2021/12/26 00:57:52;;;;;;;80.50;15.83;;;7.50;65.10;;;;;;21163;6641;294933;-90
2021/12/26 01:00:17;;;;;;;46.03;12.45;;;7.60;65.40;;;;;;21386;6641;66465;-87
2021/12/26 01:02:44;;;;;;;68.90;12.27;;;7.50;65.90;;;;;;21375;6641;71005;-87
2021/12/26 01:05:09;;;;;;;83.43;13.57;;;7.50;65.90;;;;;;21443;6641;66134;-92
2021/12/26 01:07:54;;;;;;;88.47;16.45;;;7.40;66.20;;;;;;21206;6641;305087;-90
2021/12/26 01:10:07;;;;;;;143.67;18.50;;;7.50;66.20;;;;;;21190;6627;300541;-85
2021/12/26 01:12:34;;;;;;;87.10;13.70;;;7.80;64.70;;;;;;21415;6640;70241;-86
2021/12/26 01:15:04;;;;;;;152.80;18.63;;;7.80;64.20;;;;;;21223;6640;302826;-87
2021/12/26 01:17:26;;;;;;;91.63;14.07;;;7.90;64.20;;;;;;21445;6640;66294;-87
2021/12/26 01:19:52;;;;;;;121.67;15.40;;;7.90;64.40;;;;;;21387;6640;66858;-88
2021/12/26 01:22:15;;;;;;;122.10;17.80;;;7.70;65.00;;;;;;21190;6628;316650;-86
2021/12/26 01:24:41;;;;;;;131.70;16.23;;;7.80;65.20;;;;;;21384;6640;67201;-85
2021/12/26 01:27:07;;;;;;;94.50;14.33;;;7.80;65.00;;;;;;21397;6640;66287;-90
2021/12/26 01:29:34;;;;;;;80.87;15.30;;;7.60;65.50;;;;;;21434;6628;66878;-85
2021/12/26 01:31:58;;;;;;;139.95;19.58;;;7.60;65.60;;;;;;21151;6640;329560;-85
2021/12/26 01:34:24;;;;;;;212.50;18.10;;;7.60;65.60;;;;;;21439;6626;66692;-85
2021/12/26 01:36:50;;;;;;;161.20;15.83;;;7.60;64.70;;;;;;21438;6628;66226;-88
2021/12/26 01:39:15;;;;;;;152.57;17.33;;;7.40;65.10;;;;;;21395;6640;66254;-90
2021/12/26 01:41:43;;;;;;;131.70;16.87;;;7.20;66.30;;;;;;21385;6640;66997;-88
2021/12/26 01:44:09;;;;;;;162.00;15.90;;;7.20;66.30;;;;;;21377;6640;66274;-85
2021/12/26 01:46:33;;;;;;;176.43;21.58;;;7.10;66.80;;;;;;21154;6640;272363;-86
2021/12/26 01:49:05;;;;;;;146.63;17.53;;;7.30;66.40;;;;;;21387;6641;66184;-85
2021/12/26 01:51:31;;;;;;;216.45;21.37;;;7.30;65.70;;;;;;21150;6641;303564;-88
2021/12/26 01:53:58;;;;;;;225.27;21.98;;;7.50;65.20;;;;;;21246;6628;329116;-88
2021/12/26 01:56:22;;;;;;;138.20;21.10;;;7.80;64.00;;;;;;21234;6641;305004;-89
2021/12/26 01:58:47;;;;;;;127.33;17.30;;;8.10;63.10;;;;;;21435;6626;66609;-86
2021/12/26 02:01:13;;;;;;;76.23;15.00;;;8.00;63.10;;;;;;21372;6641;66751;-88
2021/12/26 02:03:39;;;;;;;120.47;20.67;;;7.80;65.10;;;;;;21165;6641;271657;-85
2021/12/26 02:06:05;;;;;;;128.05;19.70;;;7.80;64.30;;;;;;21156;6641;300967;-86
2021/12/26 02:08:30;;;;;;;40.63;17.97;;;8.10;63.60;;;;;;21149;6641;330633;-86
2021/12/26 02:10:59;;;;;;;112.67;19.70;;;8.30;62.90;;;;;;21191;6628;329568;-85
2021/12/26 02:13:22;;;;;;;165.90;20.62;;;8.50;62.30;;;;;;21153;6641;306220;-86
2021/12/26 02:15:47;;;;;;;159.85;20.50;;;8.60;61.50;;;;;;21203;6628;301000;-88
2021/12/26 02:18:13;;;;;;;181.40;20.20;;;8.70;60.50;;;;;;21162;6641;275965;-89
2021/12/26 02:21:10;;;;;;;109.07;16.60;;;8.80;60.00;;;;;;21385;6639;66739;-86
2021/12/26 02:23:30;;;;;;;122.40;16.37;;;8.50;60.40;;;;;;21360;6640;66253;-85
2021/12/26 02:28:35;;;;;;;141.53;16.37;;;7.80;62.70;;;;;;21413;6640;66790;-85
2021/12/26 02:31:00;;;;;;;127.10;14.18;;;7.50;63.70;;;;;;21441;6628;65693;-89
2021/12/26 02:33:26;;;;;;;75.62;14.40;;;7.30;65.00;;;;;;21480;6640;66623;-90
2021/12/26 02:35:52;;;;;;;83.55;15.30;;;7.20;64.80;;;;;;21435;6640;71869;-85
2021/12/26 02:38:17;;;;;;;125.95;19.65;;;7.00;65.40;;;;;;21186;6640;301030;-86
2021/12/26 02:40:42;;;;;;;88.90;15.93;;;7.20;65.40;;;;;;21400;6640;66713;-88
2021/12/26 02:43:08;;;;;;;87.47;15.80;;;7.30;65.10;;;;;;21414;6640;70363;-87
2021/12/26 02:45:34;;;;;;;88.85;19.75;;;7.20;65.30;;;;;;21187;6640;329836;-85
2021/12/26 02:47:59;;;;;;;45.73;15.03;;;7.40;65.30;;;;;;21391;6640;66386;-86
2021/12/26 02:50:25;;;;;;;77.17;18.90;;;7.40;64.80;;;;;;21211;6628;277270;-88
2021/12/26 02:52:50;;;;;;;82.73;20.17;;;7.60;64.50;;;;;;21175;6640;272359;-90
2021/12/26 02:55:16;;;;;;;21.83;17.53;;;7.90;63.90;;;;;;21236;6640;299459;-90
2021/12/26 02:57:41;;;;;;;38.37;18.37;;;8.20;63.30;;;;;;21183;6640;300104;-86
2021/12/26 03:00:07;;;;;;;36.92;14.75;;;8.40;62.50;;;;;;21401;6641;66718;-86
2021/12/26 03:02:34;;;;;;;47.03;17.95;;;8.30;62.10;;;;;;21174;6641;303223;-87
2021/12/26 03:04:59;;;;;;;38.47;15.10;;;8.30;62.10;;;;;;21439;6628;66447;-86
2021/12/26 03:07:25;;;;;;;18.77;12.57;;;7.90;62.90;;;;;;21381;6641;66544;-90
2021/12/26 03:09:58;;;;;;;14.30;12.77;;;7.90;62.90;;;;;;21391;6641;66750;-86
2021/12/26 03:12:16;;;;;;;22.17;13.43;;;7.60;64.50;;;;;;21364;6641;66288;-85
2021/12/26 03:14:42;;;;;;;21.80;15.85;;;7.50;64.70;;;;;;21206;6628;303497;-88
2021/12/26 03:17:08;;;;;;;14.20;12.70;;;7.60;64.50;;;;;;21398;6637;67013;-90
2021/12/26 03:19:33;;;;;;;15.57;12.63;;;7.70;64.30;;;;;;21378;6644;66252;-86
2021/12/26 03:21:59;;;;;;;15.63;11.80;;;7.60;64.50;;;;;;21430;6626;67081;-88
2021/12/26 03:24:24;;;;;;;15.67;11.77;;;7.40;65.00;;;;;;21396;6641;69382;-92
2021/12/26 03:26:50;;;;;;;20.53;15.90;;;7.30;65.00;;;;;;21212;6628;281682;-86
2021/12/26 03:29:15;;;;;;;18.87;15.73;;;7.40;64.70;;;;;;21180;6641;300626;-86
2021/12/26 03:31:42;;;;;;;16.58;12.70;;;7.70;63.70;;;;;;21441;6628;67715;-89
2021/12/26 03:34:07;;;;;;;15.60;12.23;;;7.70;63.50;;;;;;21394;6638;66270;-86
2021/12/26 03:36:33;;;;;;;15.00;10.90;;;7.30;65.00;;;;;;21386;6640;66285;-89
2021/12/26 03:38:58;;;;;;;16.73;13.80;;;7.30;65.00;;;;;;21185;6640;300595;-86
2021/12/26 03:41:24;;;;;;;13.27;11.75;;;7.50;65.40;;;;;;21412;6640;69967;-86
2021/12/26 03:43:49;;;;;;;12.23;10.83;;;7.50;65.00;;;;;;21464;6640;66832;-90
2021/12/26 03:46:15;;;;;;;11.63;10.43;;;7.30;65.10;;;;;;21449;6628;67127;-86
2021/12/26 03:48:41;;;;;;;15.73;13.77;;;7.20;65.50;;;;;;21204;6640;305966;-88
2021/12/26 03:51:06;;;;;;;15.23;13.65;;;7.40;65.30;;;;;;21242;6640;316864;-90
2021/12/26 03:53:32;;;;;;;12.43;10.90;;;7.70;64.60;;;;;;21431;6640;66629;-89
2021/12/26 03:55:58;;;;;;;11.57;10.38;;;7.70;64.30;;;;;;21443;6628;67098;-88
2021/12/26 03:58:23;;;;;;;11.17;10.00;;;7.50;64.80;;;;;;21398;6640;67315;-86
2021/12/26 04:00:48;;;;;;;11.77;10.57;;;7.30;65.60;;;;;;21405;6640;66185;-90
2021/12/26 04:03:14;;;;;;;10.33;9.20;;;7.10;66.10;;;;;;21395;6640;66266;-89
2021/12/26 04:05:40;;;;;;;11.80;10.60;;;6.90;67.10;;;;;;21398;6640;67121;-90
2021/12/26 04:08:07;;;;;;;11.20;10.10;;;6.90;67.60;;;;;;21439;6628;66738;-88
2021/12/26 04:10:32;;;;;;;12.27;10.93;;;6.90;67.60;;;;;;21421;6641;71562;-85
2021/12/26 04:12:58;;;;;;;13.62;11.05;;;6.80;67.90;;;;;;21425;6641;67994;-93
2021/12/26 04:15:23;;;;;;;11.97;10.67;;;6.80;67.80;;;;;;21434;6628;66661;-86
2021/12/26 04:17:49;;;;;;;12.10;10.80;;;6.70;67.90;;;;;;21394;6641;66202;-89
2021/12/26 04:20:14;;;;;;;13.30;10.70;;;6.70;68.00;;;;;;21388;6641;70780;-86
2021/12/26 04:22:40;;;;;;;17.85;14.77;;;6.70;68.40;;;;;;21174;6641;300590;-86
2021/12/26 04:25:05;;;;;;;14.63;12.90;;;6.90;67.70;;;;;;21381;6641;66693;-87
2021/12/26 04:27:31;;;;;;;15.05;11.80;;;7.00;66.90;;;;;;21387;6641;66202;-86
2021/12/26 04:29:57;;;;;;;16.50;14.70;;;7.00;67.10;;;;;;21216;6628;304646;-86
2021/12/26 04:32:22;;;;;;;18.12;15.90;;;7.20;67.40;;;;;;21227;6641;299407;-91
2021/12/26 04:34:48;;;;;;;16.23;12.67;;;7.50;65.20;;;;;;21458;6641;66212;-85
2021/12/26 04:37:14;;;;;;;16.03;12.20;;;7.30;65.30;;;;;;21447;6628;66627;-86
2021/12/26 04:39:40;;;;;;;16.27;14.27;;;7.30;65.30;;;;;;21182;6641;306522;-85
2021/12/26 04:42:05;;;;;;;17.20;15.13;;;7.40;65.50;;;;;;21177;6641;276302;-88
2021/12/26 04:44:31;;;;;;;16.00;14.40;;;7.80;64.40;;;;;;21211;6626;301223;-85
2021/12/26 04:46:56;;;;;;;14.73;13.23;;;8.00;63.20;;;;;;21172;6640;300992;-89
2021/12/26 04:49:23;;;;;;;12.57;11.27;;;8.10;62.90;;;;;;21395;6640;66957;-85
2021/12/26 04:51:48;;;;;;;11.77;10.63;;;8.10;62.80;;;;;;21430;6628;69282;-84
2021/12/26 04:54:14;;;;;;;11.32;10.23;;;7.50;64.60;;;;;;21389;6640;68616;-89
2021/12/26 04:56:40;;;;;;;11.60;10.47;;;7.60;64.70;;;;;;21387;6640;66297;-89
2021/12/26 04:59:06;;;;;;;11.33;10.13;;;7.40;65.60;;;;;;21392;6640;66189;-85
2021/12/26 05:01:31;;;;;;;10.60;9.63;;;7.20;66.00;;;;;;21389;6640;66627;-86
2021/12/26 05:03:57;;;;;;;11.73;10.60;;;7.10;66.40;;;;;;21408;6640;66774;-89
2021/12/26 05:06:22;;;;;;;15.25;13.75;;;7.00;66.80;;;;;;21199;6640;298182;-86
2021/12/26 05:08:48;;;;;;;13.77;12.20;;;7.20;66.30;;;;;;21485;6640;66593;-88
2021/12/26 05:11:13;;;;;;;14.80;13.40;;;7.30;65.90;;;;;;21237;6628;301329;-88
2021/12/26 05:13:39;;;;;;;12.33;10.73;;;7.50;65.50;;;;;;21400;6640;66273;-86
2021/12/26 05:16:05;;;;;;;15.53;13.87;;;7.70;64.70;;;;;;21222;6626;329445;-85
2021/12/26 05:18:31;;;;;;;15.23;13.73;;;7.70;64.60;;;;;;21225;6628;276610;-85
2021/12/26 05:20:57;;;;;;;15.23;13.67;;;8.20;62.80;;;;;;21189;6640;272716;-85
2021/12/26 05:23:23;;;;;;;14.70;13.23;;;8.20;62.80;;;;;;21246;6641;303572;-87
2021/12/26 05:25:49;;;;;;;14.18;10.73;;;8.30;62.30;;;;;;21407;6641;66180;-89
2021/12/26 05:28:14;;;;;;;11.00;9.90;;;8.20;62.20;;;;;;21439;6628;68291;-85
2021/12/26 05:30:40;;;;;;;15.30;13.70;;;8.00;63.20;;;;;;21180;6641;271904;-85
2021/12/26 05:33:05;;;;;;;15.93;14.17;;;8.00;62.90;;;;;;21219;6628;303994;-85
2021/12/26 05:35:31;;;;;;;17.40;15.07;;;8.20;61.80;;;;;;21172;6641;281690;-85
2021/12/26 05:37:57;;;;;;;15.97;14.23;;;8.40;61.20;;;;;;21172;6641;276369;-88
2021/12/26 05:40:22;;;;;;;12.52;11.15;;;8.60;60.60;;;;;;21386;6641;66888;-85
2021/12/26 05:42:48;;;;;;;12.87;11.27;;;8.40;61.00;;;;;;21389;6641;67331;-90
2021/12/26 05:45:13;;;;;;;20.50;15.40;;;8.00;61.90;;;;;;21215;6628;317036;-87
2021/12/26 05:47:39;;;;;;;18.50;15.03;;;8.00;61.80;;;;;;21174;6641;301487;-85
2021/12/26 05:50:05;;;;;;;15.73;12.57;;;8.20;61.40;;;;;;21396;6641;66562;-88
2021/12/26 05:52:30;;;;;;;12.50;11.20;;;8.10;61.60;;;;;;21381;6641;69770;-85
2021/12/26 05:54:56;;;;;;;23.35;16.20;;;7.90;62.40;;;;;;21204;6628;301597;-87
2021/12/26 05:57:21;;;;;;;14.13;12.40;;;7.90;62.60;;;;;;21387;6639;66310;-86
2021/12/26 05:59:48;;;;;;;16.77;11.38;;;7.60;63.20;;;;;;21395;6640;66246;-90
2021/12/26 06:02:13;;;;;;;17.00;12.17;;;7.60;63.20;;;;;;21388;6640;71171;-84
2021/12/26 06:04:39;;;;;;;17.60;12.10;;;7.50;63.80;;;;;;21391;6640;66193;-85
2021/12/26 06:07:04;;;;;;;19.45;15.10;;;7.30;64.30;;;;;;21172;6640;300540;-87
2021/12/26 06:09:30;;;;;;;16.67;12.57;;;7.40;64.40;;;;;;21414;6640;66372;-85
2021/12/26 06:11:55;;;;;;;16.95;12.23;;;7.50;64.20;;;;;;21504;6628;66172;-92
2021/12/26 06:14:21;;;;;;;16.33;12.53;;;7.40;64.60;;;;;;21428;6640;66213;-86
2021/12/26 06:16:46;;;;;;;25.77;16.23;;;7.20;64.90;;;;;;21232;6626;329548;-90
2021/12/26 06:19:12;;;;;;;16.80;12.80;;;7.40;64.60;;;;;;21404;6640;67136;-85
2021/12/26 06:21:38;;;;;;;15.02;11.98;;;7.40;64.10;;;;;;21446;6628;66580;-85
2021/12/26 06:24:03;;;;;;;16.13;12.40;;;7.30;64.60;;;;;;21433;6636;66763;-89
2021/12/26 06:26:29;;;;;;;15.90;11.47;;;7.20;65.30;;;;;;21482;6640;69413;-93
2021/12/26 06:28:54;;;;;;;29.65;17.12;;;7.10;66.10;;;;;;21189;6640;301481;-85
2021/12/26 06:31:20;;;;;;;18.47;13.10;;;7.30;65.50;;;;;;21426;6628;66551;-86
2021/12/26 06:33:46;;;;;;;26.07;17.10;;;7.60;64.70;;;;;;21165;6641;296668;-86
2021/12/26 06:36:12;;;;;;;22.35;16.45;;;7.60;64.70;;;;;;21167;6641;333512;-85
2021/12/26 06:38:38;;;;;;;20.30;15.90;;;8.20;62.40;;;;;;21166;6641;302736;-85
2021/12/26 06:41:04;;;;;;;18.03;15.87;;;8.20;62.40;;;;;;21153;6641;299571;-89
2021/12/26 06:43:29;;;;;;;18.23;13.32;;;8.40;61.50;;;;;;21393;6641;66997;-86
2021/12/26 06:45:55;;;;;;;17.63;13.40;;;8.30;61.70;;;;;;21432;6628;67276;-84
2021/12/26 06:48:20;;;;;;;23.70;16.20;;;8.00;62.40;;;;;;21173;6641;289158;-86
2021/12/26 06:50:46;;;;;;;19.37;15.70;;;8.00;62.30;;;;;;21171;6641;272357;-90
2021/12/26 06:53:12;;;;;;;17.02;12.57;;;8.30;62.00;;;;;;21401;6641;70533;-88
2021/12/26 06:55:37;;;;;;;21.07;16.10;;;8.20;62.00;;;;;;21206;6628;300892;-85
2021/12/26 06:58:03;;;;;;;21.77;14.05;;;8.10;62.10;;;;;;21401;6641;66862;-88
2021/12/26 07:00:29;;;;;;;14.73;12.17;;;8.20;62.10;;;;;;21433;6641;66791;-88
2021/12/26 07:02:54;;;;;;;13.13;11.48;;;7.90;63.10;;;;;;21477;6641;66212;-88
2021/12/26 07:05:20;;;;;;;16.25;14.63;;;7.70;63.50;;;;;;21232;6628;329466;-85
2021/12/26 07:07:46;;;;;;;14.13;12.63;;;7.80;63.90;;;;;;21399;6639;66696;-85
2021/12/26 07:10:11;;;;;;;13.70;11.93;;;7.90;63.80;;;;;;21402;6640;66508;-89
2021/12/26 07:12:37;;;;;;;16.10;14.40;;;7.70;64.20;;;;;;21187;6640;315073;-85
2021/12/26 07:15:02;;;;;;;17.40;15.55;;;7.90;64.10;;;;;;21184;6640;307774;-86
2021/12/26 07:17:28;;;;;;;18.17;16.27;;;8.20;62.90;;;;;;21162;6640;300630;-84
2021/12/26 07:19:54;;;;;;;18.77;14.03;;;8.50;61.80;;;;;;21424;6628;71145;-84
2021/12/26 07:22:20;;;;;;;16.93;15.17;;;8.40;61.70;;;;;;21168;6640;273460;-88
2021/12/26 07:24:47;;;;;;;24.90;18.10;;;8.40;61.40;;;;;;21176;6640;305337;-83
2021/12/26 07:27:11;;;;;;;18.80;16.80;;;8.60;61.00;;;;;;21203;6628;305102;-86
2021/12/26 07:29:37;;;;;;;17.43;15.67;;;8.80;60.40;;;;;;21156;6640;273265;-90
2021/12/26 07:32:03;;;;;;;16.83;15.15;;;8.90;60.00;;;;;;21119;6640;300079;-90
2021/12/26 07:34:29;;;;;;;16.05;14.55;;;9.10;59.70;;;;;;21171;6640;330276;-89
2021/12/26 07:36:55;;;;;;;26.17;13.53;;;9.20;59.70;;;;;;21387;6640;67491;-87
2021/12/26 07:39:20;;;;;;;105.03;17.23;;;8.90;60.00;;;;;;21203;6640;274584;-87
2021/12/26 07:41:46;;;;;;;107.50;14.50;;;8.90;59.80;;;;;;21479;6628;66508;-90
2021/12/26 07:44:12;;;;;;;81.23;13.73;;;8.70;60.20;;;;;;21464;6640;66620;-89
2021/12/26 07:46:37;;;;;;;97.40;18.07;;;8.40;61.00;;;;;;21245;6626;329855;-87
2021/12/26 07:49:03;;;;;;;45.60;17.10;;;8.40;61.20;;;;;;21191;6641;272315;-85
2021/12/26 07:51:28;;;;;;;50.77;14.33;;;8.60;60.80;;;;;;21458;6641;67065;-91
2021/12/26 07:53:59;;;;;;;66.53;17.87;;;8.50;60.90;;;;;;21236;6628;300024;-86
2021/12/26 07:56:19;;;;;;;41.13;17.83;;;8.50;61.10;;;;;;21159;6641;301273;-87
2021/12/26 07:58:45;;;;;;;52.57;15.80;;;8.70;60.50;;;;;;21394;6641;66237;-89
2021/12/26 08:01:10;;;;;;;30.77;18.62;;;8.60;60.70;;;;;;21156;6641;323061;-87
2021/12/26 08:03:36;;;;;;;20.73;14.57;;;8.60;60.70;;;;;;21434;6628;72932;-86
2021/12/26 08:06:02;;;;;;;16.70;13.37;;;8.20;61.60;;;;;;21390;6641;66717;-89
2021/12/26 08:08:28;;;;;;;17.90;15.47;;;8.20;61.60;;;;;;21395;6641;66176;-88
2021/12/26 08:10:54;;;;;;;19.48;16.12;;;8.00;62.50;;;;;;21191;6641;271477;-84
2021/12/26 08:13:19;;;;;;;16.17;14.52;;;8.10;62.50;;;;;;21180;6641;275538;-85
2021/12/26 08:15:45;;;;;;;16.30;14.70;;;8.60;61.10;;;;;;21256;6628;328571;-90
2021/12/26 08:18:11;;;;;;;21.80;17.13;;;8.60;60.40;;;;;;21192;6641;300619;-86
2021/12/26 08:20:37;;;;;;;16.53;13.70;;;8.80;59.70;;;;;;21461;6624;69821;-88
2021/12/26 08:23:02;;;;;;;18.55;14.00;;;8.70;60.30;;;;;;21411;6640;89620;-87
2021/12/26 08:25:28;;;;;;;20.13;16.90;;;8.40;61.10;;;;;;21454;6628;66105;-84
2021/12/26 08:27:53;;;;;;;20.35;15.88;;;8.10;62.00;;;;;;21417;6640;67138;-86
2021/12/26 08:30:20;;;;;;;29.80;22.17;;;7.90;62.80;;;;;;21224;6628;332983;-84
2021/12/26 08:32:47;;;;;;;19.07;14.90;;;8.00;62.50;;;;;;21394;6640;71192;-85
2021/12/26 08:35:10;;;;;;;16.55;13.57;;;8.10;62.60;;;;;;21387;6640;73502;-84
2021/12/26 08:37:37;;;;;;;20.93;17.50;;;7.90;63.10;;;;;;21199;6640;275485;-90
2021/12/26 08:40:01;;;;;;;15.85;14.35;;;8.10;63.10;;;;;;21171;6640;300975;-85
2021/12/26 08:42:27;;;;;;;15.23;13.62;;;8.40;62.00;;;;;;21404;6640;66205;-85
2021/12/26 08:44:53;;;;;;;14.30;12.80;;;8.40;62.00;;;;;;21445;6628;67091;-84
2021/12/26 08:47:18;;;;;;;14.38;12.75;;;8.20;62.50;;;;;;21415;6640;66899;-85
2021/12/26 08:49:44;;;;;;;17.90;14.13;;;8.00;63.20;;;;;;21411;6640;66251;-89
2021/12/26 08:52:09;;;;;;;17.42;15.73;;;7.90;63.90;;;;;;21200;6640;330183;-83
2021/12/26 08:54:35;;;;;;;31.53;28.23;;;8.10;63.50;;;;;;21209;6640;275895;-84
2021/12/26 08:57:00;;;;;;;148.25;19.58;;;8.40;62.50;;;;;;21225;6641;271738;-89
2021/12/26 08:59:30;;;;;;;471.27;25.87;;;8.80;61.90;;;;;;21253;6641;270505;-83
2021/12/26 09:01:52;;;;;;;165.53;19.33;;;9.00;61.10;;;;;;21233;6641;330892;-88
2021/12/26 09:04:17;;;;;;;217.52;19.08;;;9.20;60.20;;;;;;21513;6626;66145;-90
2021/12/26 09:06:43;;;;;;;32.20;15.55;;;9.10;60.40;;;;;;21438;6628;66595;-85
2021/12/26 09:09:10;;;;;;;45.83;18.70;;;8.80;61.20;;;;;;21183;6638;313279;-83
2021/12/26 09:11:35;;;;;;;34.45;15.88;;;8.80;61.70;;;;;;21406;6641;67510;-85
2021/12/26 09:14:01;;;;;;;20.40;13.90;;;8.60;62.40;;;;;;21414;6641;66328;-87
2021/12/26 09:16:33;;;;;;;21.53;15.60;;;8.50;62.30;;;;;;21420;6641;67081;-85
2021/12/26 09:18:52;;;;;;;22.65;15.73;;;8.40;63.00;;;;;;21297;6641;66796;-91
2021/12/26 09:21:18;;;;;;;23.83;20.03;;;8.30;63.60;;;;;;21173;6641;273700;-87
2021/12/26 09:23:43;;;;;;;29.02;20.00;;;8.40;63.60;;;;;;21229;6632;280434;-84
2021/12/26 09:26:09;;;;;;;23.47;19.67;;;8.80;62.30;;;;;;21197;6637;300470;-88
2021/12/26 09:28:38;;;;;;;26.70;20.60;;;9.30;60.90;;;;;;21174;6641;273900;-86
2021/12/26 09:31:01;;;;;;;29.37;19.97;;;9.30;60.90;;;;;;21190;6626;304928;-88
2021/12/26 09:33:26;;;;;;;26.80;21.93;;;9.50;60.30;;;;;;21166;6640;301864;-88
2021/12/26 09:35:52;;;;;;;23.53;20.67;;;9.70;59.70;;;;;;21207;6628;286877;-89
2021/12/26 09:38:17;;;;;;;23.40;20.62;;;9.80;59.50;;;;;;21170;6640;322717;-88
2021/12/26 09:40:43;;;;;;;17.03;15.20;;;9.90;59.00;;;;;;21377;6640;66306;-85
2021/12/26 09:43:08;;;;;;;27.06;21.26;;;9.70;59.40;;;;;;21171;6640;322214;-88
2021/12/26 09:45:34;;;;;;;19.27;16.17;;;9.70;59.70;;;;;;21380;6640;66607;-86
2021/12/26 09:47:59;;;;;;;22.00;16.80;;;9.60;60.10;;;;;;21170;6640;297655;-86
2021/12/26 09:50:25;;;;;;;23.87;19.43;;;9.60;60.20;;;;;;21205;6628;299633;-85
2021/12/26 09:52:53;;;;;;;15.97;14.27;;;9.80;60.00;;;;;;21395;6640;73156;-85
2021/12/26 09:55:16;;;;;;;15.27;13.67;;;9.80;60.30;;;;;;21384;6640;66669;-85
2021/12/26 09:57:42;;;;;;;23.87;17.93;;;9.60;61.10;;;;;;21179;6640;300616;-84
2021/12/26 10:00:20;;;;;;;19.55;17.55;;;9.60;60.90;;;;;;21158;6640;300636;-87
2021/12/26 10:02:46;;;;;;;48.97;18.57;;;9.90;60.20;;;;;;21172;6640;271539;-88
2021/12/26 10:05:11;;;;;;;20.00;17.80;;;10.10;58.20;;;;;;21218;6628;301224;-88
2021/12/26 10:07:37;;;;;;;17.67;13.70;;;10.30;57.90;;;;;;21429;6640;66200;-91
2021/12/26 10:10:06;;;;;;;16.15;14.43;;;10.20;58.30;;;;;;21477;6626;66613;-90
2021/12/26 10:12:32;;;;;;;18.00;16.10;;;9.90;60.00;;;;;;21202;6628;276560;-88
2021/12/26 10:14:57;;;;;;;14.93;13.13;;;9.90;60.20;;;;;;21360;6641;66190;-87
2021/12/26 10:17:27;;;;;;;14.60;13.13;;;9.80;60.50;;;;;;21516;6626;66156;-88
2021/12/26 10:19:51;;;;;;;12.37;11.17;;;9.60;61.10;;;;;;21436;6628;68615;-89
2021/12/26 10:22:21;;;;;;;14.57;13.05;;;9.30;61.90;;;;;;21388;6641;66736;-88
2021/12/26 10:24:48;;;;;;;16.83;15.23;;;9.20;62.40;;;;;;21159;6641;301086;-87
2021/12/26 10:27:12;;;;;;;13.52;12.13;;;9.40;62.10;;;;;;21383;6641;76524;-86
2021/12/26 10:29:41;;;;;;;15.00;13.23;;;9.40;62.40;;;;;;21382;6641;67173;-88
2021/12/26 10:32:14;;;;;;;14.27;12.70;;;9.30;62.20;;;;;;21394;6628;66744;-91
2021/12/26 10:34:45;;;;;;;17.73;15.93;;;9.20;62.80;;;;;;21138;6641;272033;-87
2021/12/26 10:37:11;;;;;;;16.83;15.23;;;9.40;62.70;;;;;;21161;6641;329883;-88
2021/12/26 10:39:39;;;;;;;15.43;12.02;;;9.70;61.70;;;;;;21393;6628;66534;-89
2021/12/26 10:42:08;;;;;;;17.13;15.40;;;9.80;61.80;;;;;;21128;6639;300920;-88
2021/12/26 10:44:44;;;;;;;17.50;15.70;;;9.90;61.60;;;;;;21191;6628;329563;-88
2021/12/26 10:47:09;;;;;;;14.65;13.35;;;10.10;60.00;;;;;;21140;6640;330828;-92
2021/12/26 10:49:38;;;;;;;14.13;12.82;;;10.40;59.60;;;;;;21158;6640;300997;-85
2021/12/26 10:52:04;;;;;;;9.40;8.73;;;10.60;58.90;;;;;;21163;6640;301462;-88
2021/12/26 10:54:31;;;;;;;11.93;10.87;;;10.80;58.70;;;;;;21372;6640;67093;-84
2021/12/26 10:57:04;;;;;;;9.17;8.47;;;10.70;59.10;;;;;;21383;6640;69805;-87
2021/12/26 10:59:30;;;;;;;8.90;8.20;;;10.50;60.10;;;;;;21364;6640;66741;-89
2021/12/26 11:01:56;;;;;;;10.27;9.47;;;10.20;60.90;;;;;;21387;6640;66619;-84
2021/12/26 11:04:25;;;;;;;11.02;10.23;;;10.20;60.80;;;;;;21161;6640;335302;-84
2021/12/26 11:07:01;;;;;;;9.53;8.77;;;10.20;60.80;;;;;;21426;6628;66123;-87
2021/12/26 11:09:26;;;;;;;9.40;8.70;;;10.30;60.90;;;;;;21379;6640;66932;-84
2021/12/26 11:11:59;;;;;;;10.10;9.20;;;10.10;61.10;;;;;;21418;6640;66196;-87
2021/12/26 11:14:24;;;;;;;8.97;8.17;;;10.00;61.70;;;;;;21444;6640;66695;-88
2021/12/26 11:16:50;;;;;;;10.77;10.07;;;9.90;63.20;;;;;;21239;6640;271590;-90
2021/12/26 11:19:15;;;;;;;12.60;11.60;;;10.10;61.40;;;;;;21215;6628;290252;-87
2021/12/26 11:21:41;;;;;;;12.00;11.10;;;10.50;60.40;;;;;;21178;6641;272591;-86
2021/12/26 11:24:06;;;;;;;12.90;11.83;;;10.90;59.00;;;;;;21175;6641;302481;-88
2021/12/26 11:26:32;;;;;;;10.48;9.68;;;11.10;58.20;;;;;;21394;6641;66255;-85
2021/12/26 11:28:57;;;;;;;10.87;10.07;;;11.10;58.50;;;;;;21178;6641;272013;-86
2021/12/26 11:31:23;;;;;;;11.40;10.60;;;11.10;57.80;;;;;;21221;6628;301310;-87
2021/12/26 11:33:56;;;;;;;10.23;9.52;;;11.40;57.50;;;;;;21212;6641;299700;-88
2021/12/26 11:36:17;;;;;;;8.97;8.37;;;11.60;56.60;;;;;;21378;6641;66206;-86
2021/12/26 11:38:43;;;;;;;9.37;8.67;;;11.50;57.10;;;;;;21418;6641;66612;-88
2021/12/26 11:41:21;;;;;;;8.80;8.20;;;11.20;57.80;;;;;;21410;6641;66284;-88
2021/12/26 11:44:07;;;;;;;11.43;10.53;;;11.00;58.60;;;;;;21147;6641;301397;-86
2021/12/26 11:46:45;;;;;;;13.57;12.47;;;11.10;58.10;;;;;;21164;6641;281837;-89
2021/12/26 11:49:44;;;;;;;13.13;12.00;;;11.40;57.40;;;;;;21165;6641;329754;-86
2021/12/26 11:52:32;;;;;;;12.33;11.23;;;11.70;56.90;;;;;;21383;6641;66327;-86
2021/12/26 11:55:04;;;;;;;15.57;14.27;;;11.50;57.20;;;;;;20603;6640;330209;-85
2021/12/26 11:57:32;;;;;;;11.73;10.63;;;11.60;57.30;;;;;;21361;6640;66699;-86
2021/12/26 12:00:06;;;;;;;11.30;10.40;;;11.50;57.60;;;;;;21385;6640;66176;-91
2021/12/26 12:02:43;;;;;;;12.00;10.80;;;11.30;58.40;;;;;;21378;6640;67169;-84
2021/12/26 12:05:18;;;;;;;10.33;9.43;;;11.10;59.60;;;;;;21392;6640;66214;-87
2021/12/26 12:07:42;;;;;;;11.38;10.48;;;11.20;59.20;;;;;;21183;6640;272736;-84
2021/12/26 12:10:38;;;;;;;10.33;9.53;;;11.20;59.20;;;;;;21416;6640;66673;-85
2021/12/26 12:13:04;;;;;;;9.17;8.47;;;11.20;59.70;;;;;;21130;6640;66610;-88
2021/12/26 12:15:46;;;;;;;9.23;8.53;;;11.20;59.70;;;;;;21386;6640;67345;-88
2021/12/26 12:18:12;;;;;;;10.33;9.63;;;11.10;60.00;;;;;;21208;6640;273245;-85
2021/12/26 12:20:37;;;;;;;10.77;9.97;;;11.30;58.50;;;;;;21161;6640;272342;-86
2021/12/26 12:23:09;;;;;;;9.83;9.23;;;11.60;57.10;;;;;;21169;6640;301910;-84
2021/12/26 12:25:35;;;;;;;9.00;8.37;;;11.80;56.50;;;;;;21426;6628;66178;-84
2021/12/26 12:28:19;;;;;;;9.40;8.60;;;11.70;56.80;;;;;;21389;6640;66697;-84
2021/12/26 12:30:48;;;;;;;9.55;8.93;;;11.40;57.60;;;;;;21111;6640;271948;-87